sensor_id;sensor_type;location;lat;lon;timestamp;pressure;altitude;pressure_sealevel;temperature;humidity
64158;BME280;50449;51.528;5.076;2023-02-19T00:01:15;101738.66;;;12.50;71.03
64158;BME280;50449;51.528;5.076;2023-02-19T00:03:47;101740.53;;;12.49;70.81
64158;BME280;50449;51.528;5.076;2023-02-19T00:06:12;101745.94;;;12.49;70.91
64158;BME280;50449;51.528;5.076;2023-02-19T00:08:38;101751.38;;;12.49;71.01
64158;BME280;50449;51.528;5.076;2023-02-19T00:11:07;101752.44;;;12.48;71.08
64158;BME280;50449;51.528;5.076;2023-02-19T00:13:36;101741.59;;;12.48;70.88
64158;BME280;50449;51.528;5.076;2023-02-19T00:16:13;101741.81;;;12.47;70.86
64158;BME280;50449;51.528;5.076;2023-02-19T00:18:40;101745.59;;;12.46;71.01
64158;BME280;50449;51.528;5.076;2023-02-19T00:21:05;101755.34;;;12.47;71.08
64158;BME280;50449;51.528;5.076;2023-02-19T00:23:31;101752.91;;;12.45;70.77
64158;BME280;50449;51.528;5.076;2023-02-19T00:26:02;101752.09;;;12.45;71.00
64158;BME280;50449;51.528;5.076;2023-02-19T00:28:27;101750.19;;;12.45;70.96
64158;BME280;50449;51.528;5.076;2023-02-19T00:30:53;101744.78;;;12.45;70.90
64158;BME280;50449;51.528;5.076;2023-02-19T00:33:18;101747.47;;;12.45;70.98
64158;BME280;50449;51.528;5.076;2023-02-19T00:35:44;101743.09;;;12.44;70.82
64158;BME280;50449;51.528;5.076;2023-02-19T00:38:09;101746.66;;;12.45;70.60
64158;BME280;50449;51.528;5.076;2023-02-19T00:40:34;101748.28;;;12.46;70.96
64158;BME280;50449;51.528;5.076;2023-02-19T00:43:00;101749.38;;;12.45;71.07
64158;BME280;50449;51.528;5.076;2023-02-19T00:45:25;101744.78;;;12.45;70.90
64158;BME280;50449;51.528;5.076;2023-02-19T00:47:52;101757.50;;;12.45;70.60
64158;BME280;50449;51.528;5.076;2023-02-19T00:50:17;101750.19;;;12.45;71.06
64158;BME280;50449;51.528;5.076;2023-02-19T00:52:43;101762.06;;;12.44;70.63
64158;BME280;50449;51.528;5.076;2023-02-19T00:55:08;101749.38;;;12.45;70.72
64158;BME280;50449;51.528;5.076;2023-02-19T00:57:33;101753.94;;;12.44;70.68
64158;BME280;50449;51.528;5.076;2023-02-19T00:59:59;101765.03;;;12.43;70.47
64158;BME280;50449;51.528;5.076;2023-02-19T01:02:24;101763.13;;;12.43;70.42
64158;BME280;50449;51.528;5.076;2023-02-19T01:04:51;101765.03;;;12.43;70.48
64158;BME280;50449;51.528;5.076;2023-02-19T01:07:17;101767.47;;;12.44;70.77
64158;BME280;50449;51.528;5.076;2023-02-19T01:09:42;101776.47;;;12.45;70.74
64158;BME280;50449;51.528;5.076;2023-02-19T01:12:07;101772.91;;;12.44;70.62
64158;BME280;50449;51.528;5.076;2023-02-19T01:14:33;101780.22;;;12.44;70.68
64158;BME280;50449;51.528;5.076;2023-02-19T01:16:58;101775.63;;;12.44;70.25
64158;BME280;50449;51.528;5.076;2023-02-19T01:19:24;101782.31;;;12.42;70.68
64158;BME280;50449;51.528;5.076;2023-02-19T01:21:49;101784.22;;;12.41;70.63
64158;BME280;50449;51.528;5.076;2023-02-19T01:24:14;101780.69;;;12.41;70.56
64158;BME280;50449;51.528;5.076;2023-02-19T01:26:41;101790.69;;;12.40;70.58
64158;BME280;50449;51.528;5.076;2023-02-19T01:29:07;101779.84;;;12.40;70.47
64158;BME280;50449;51.528;5.076;2023-02-19T01:31:32;101782.78;;;12.39;70.46
64158;BME280;50449;51.528;5.076;2023-02-19T01:34:00;101779.00;;;12.40;70.72
64158;BME280;50449;51.528;5.076;2023-02-19T01:36:27;101790.69;;;12.40;70.44
64158;BME280;50449;51.528;5.076;2023-02-19T01:38:52;101783.59;;;12.39;70.68
64158;BME280;50449;51.528;5.076;2023-02-19T01:41:21;101774.66;;;12.39;70.62
64158;BME280;50449;51.528;5.076;2023-02-19T01:46:45;101787.38;;;12.38;70.55
64158;BME280;50449;51.528;5.076;2023-02-19T01:49:24;101783.00;;;12.37;70.52
64158;BME280;50449;51.528;5.076;2023-02-19T01:51:59;101796.56;;;12.37;70.38
64158;BME280;50449;51.528;5.076;2023-02-19T01:54:28;101779.25;;;12.38;70.33
64158;BME280;50449;51.528;5.076;2023-02-19T01:56:56;101785.97;;;12.36;70.78
64158;BME280;50449;51.528;5.076;2023-02-19T01:59:22;101782.19;;;12.37;70.55
64158;BME280;50449;51.528;5.076;2023-02-19T02:01:48;101782.19;;;12.37;70.59
64158;BME280;50449;51.528;5.076;2023-02-19T02:04:14;101784.06;;;12.36;70.53
64158;BME280;50449;51.528;5.076;2023-02-19T02:06:50;101784.06;;;12.36;70.08
64158;BME280;50449;51.528;5.076;2023-02-19T02:09:21;101778.66;;;12.36;70.29
64158;BME280;50449;51.528;5.076;2023-02-19T02:12:07;101789.50;;;12.36;70.41
64158;BME280;50449;51.528;5.076;2023-02-19T02:14:35;101786.19;;;12.34;70.72
64158;BME280;50449;51.528;5.076;2023-02-19T02:17:20;101794.91;;;12.36;70.36
64158;BME280;50449;51.528;5.076;2023-02-19T02:25:24;101792.41;;;12.34;70.77
64158;BME280;50449;51.528;5.076;2023-02-19T02:28:19;101796.19;;;12.33;70.42
64158;BME280;50449;51.528;5.076;2023-02-19T02:30:50;101790.78;;;12.33;70.36
64158;BME280;50449;51.528;5.076;2023-02-19T02:36:14;101794.56;;;12.32;70.30
64158;BME280;50449;51.528;5.076;2023-02-19T02:38:43;101791.25;;;12.30;70.48
64158;BME280;50449;51.528;5.076;2023-02-19T02:41:11;101796.66;;;12.30;70.28
64158;BME280;50449;51.528;5.076;2023-02-19T02:43:37;101794.16;;;12.29;70.50
64158;BME280;50449;51.528;5.076;2023-02-19T02:46:03;101795.84;;;12.30;70.58
64158;BME280;50449;51.528;5.076;2023-02-19T02:48:44;101794.97;;;12.29;70.53
64158;BME280;50449;51.528;5.076;2023-02-19T02:51:29;101800.41;;;12.29;70.48
64158;BME280;50449;51.528;5.076;2023-02-19T02:56:59;101812.53;;;12.27;70.70
64158;BME280;50449;51.528;5.076;2023-02-19T02:59:28;101807.09;;;12.27;70.43
64158;BME280;50449;51.528;5.076;2023-02-19T03:02:13;101812.53;;;12.27;70.62
64158;BME280;50449;51.528;5.076;2023-02-19T03:07:38;101816.28;;;12.26;70.83
64158;BME280;50449;51.528;5.076;2023-02-19T03:10:09;101816.28;;;12.26;70.66
64158;BME280;50449;51.528;5.076;2023-02-19T03:12:37;101811.94;;;12.25;70.50
64158;BME280;50449;51.528;5.076;2023-02-19T03:15:47;101816.50;;;12.24;70.51
64158;BME280;50449;51.528;5.076;2023-02-19T03:18:34;101820.28;;;12.23;70.73
64158;BME280;50449;51.528;5.076;2023-02-19T03:21:21;101830.31;;;12.23;70.59
64158;BME280;50449;51.528;5.076;2023-02-19T03:23:47;101815.94;;;12.22;70.45
64158;BME280;50449;51.528;5.076;2023-02-19T03:26:32;101822.19;;;12.23;70.01
64158;BME280;50449;51.528;5.076;2023-02-19T03:29:00;101820.50;;;12.22;70.24
64158;BME280;50449;51.528;5.076;2023-02-19T03:31:46;101823.47;;;12.20;70.47
64158;BME280;50449;51.528;5.076;2023-02-19T03:34:17;101823.22;;;12.22;70.30
64158;BME280;50449;51.528;5.076;2023-02-19T03:36:49;101831.34;;;12.22;70.41
64158;BME280;50449;51.528;5.076;2023-02-19T03:39:20;101831.59;;;12.20;70.26
64158;BME280;50449;51.528;5.076;2023-02-19T03:42:00;101838.88;;;12.20;70.41
64158;BME280;50449;51.528;5.076;2023-02-19T03:47:22;101838.88;;;12.20;70.21
64158;BME280;50449;51.528;5.076;2023-02-19T03:50:35;101844.31;;;12.20;70.44
64158;BME280;50449;51.528;5.076;2023-02-19T03:53:14;101848.06;;;12.19;70.37
64158;BME280;50449;51.528;5.076;2023-02-19T03:58:19;101851.00;;;12.17;70.27
64158;BME280;50449;51.528;5.076;2023-02-19T04:00:54;101861.00;;;12.17;70.11
64158;BME280;50449;51.528;5.076;2023-02-19T04:03:42;101859.34;;;12.16;70.28
64158;BME280;50449;51.528;5.076;2023-02-19T04:06:16;101869.34;;;12.15;70.34
64158;BME280;50449;51.528;5.076;2023-02-19T04:08:47;101866.88;;;12.13;70.10
64158;BME280;50449;51.528;5.076;2023-02-19T04:11:14;101871.47;;;12.13;70.17
64158;BME280;50449;51.528;5.076;2023-02-19T04:13:49;101872.28;;;12.13;70.23
64158;BME280;50449;51.528;5.076;2023-02-19T04:16:22;101872.53;;;12.12;70.10
64158;BME280;50449;51.528;5.076;2023-02-19T04:18:51;101867.09;;;12.12;70.35
64158;BME280;50449;51.528;5.076;2023-02-19T04:21:19;101887.09;;;12.11;70.43
64158;BME280;50449;51.528;5.076;2023-02-19T04:23:46;101883.34;;;12.12;70.40
64158;BME280;50449;51.528;5.076;2023-02-19T04:26:13;101894.19;;;12.12;70.58
64158;BME280;50449;51.528;5.076;2023-02-19T04:28:40;101892.50;;;12.11;70.05
64158;BME280;50449;51.528;5.076;2023-02-19T04:31:07;101898.75;;;12.11;70.63
64158;BME280;50449;51.528;5.076;2023-02-19T04:33:33;101906.28;;;12.09;70.03
64158;BME280;50449;51.528;5.076;2023-02-19T04:35:58;101901.09;;;12.08;70.46
64158;BME280;50449;51.528;5.076;2023-02-19T04:38:24;101900.28;;;12.07;70.49
64158;BME280;50449;51.528;5.076;2023-02-19T04:40:50;101903.00;;;12.07;70.63
64158;BME280;50449;51.528;5.076;2023-02-19T04:43:16;101905.69;;;12.07;70.20
64158;BME280;50449;51.528;5.076;2023-02-19T04:45:41;101918.38;;;12.07;70.25
64158;BME280;50449;51.528;5.076;2023-02-19T04:48:07;101921.09;;;12.07;70.48
64158;BME280;50449;51.528;5.076;2023-02-19T04:50:33;101910.25;;;12.07;70.40
64158;BME280;50449;51.528;5.076;2023-02-19T04:52:58;101917.56;;;12.06;70.42
64158;BME280;50449;51.528;5.076;2023-02-19T04:55:23;101929.22;;;12.07;70.52
64158;BME280;50449;51.528;5.076;2023-02-19T04:57:49;101934.88;;;12.05;70.54
64158;BME280;50449;51.528;5.076;2023-02-19T05:00:14;101941.31;;;12.04;70.60
64158;BME280;50449;51.528;5.076;2023-02-19T05:02:40;101941.31;;;12.04;70.84
64158;BME280;50449;51.528;5.076;2023-02-19T05:05:05;101946.97;;;12.03;70.58
64158;BME280;50449;51.528;5.076;2023-02-19T05:07:31;101944.28;;;12.03;70.51
64158;BME280;50449;51.528;5.076;2023-02-19T05:09:56;101960.53;;;12.03;70.35
64158;BME280;50449;51.528;5.076;2023-02-19T05:12:24;101959.91;;;12.01;70.74
64158;BME280;50449;51.528;5.076;2023-02-19T05:14:49;101969.69;;;12.02;70.51
64158;BME280;50449;51.528;5.076;2023-02-19T05:17:15;101966.16;;;12.01;70.51
64158;BME280;50449;51.528;5.076;2023-02-19T05:19:40;101968.84;;;12.01;70.64
64158;BME280;50449;51.528;5.076;2023-02-19T05:22:05;101973.66;;;11.99;70.41
64158;BME280;50449;51.528;5.076;2023-02-19T05:24:31;101975.34;;;12.00;70.33
64158;BME280;50449;51.528;5.076;2023-02-19T05:26:56;101974.50;;;12.00;70.56
64158;BME280;50449;51.528;5.076;2023-02-19T05:29:22;101968.47;;;11.98;70.62
64158;BME280;50449;51.528;5.076;2023-02-19T05:31:47;101974.94;;;11.97;70.39
64158;BME280;50449;51.528;5.076;2023-02-19T05:34:13;101980.34;;;11.97;70.65
64158;BME280;50449;51.528;5.076;2023-02-19T05:36:38;101984.94;;;11.96;70.59
64158;BME280;50449;51.528;5.076;2023-02-19T05:39:04;101986.81;;;11.96;70.57
64158;BME280;50449;51.528;5.076;2023-02-19T05:41:32;101982.47;;;11.95;70.56
64158;BME280;50449;51.528;5.076;2023-02-19T05:43:57;101978.91;;;11.94;70.53
64158;BME280;50449;51.528;5.076;2023-02-19T05:46:26;101984.56;;;11.93;70.50
64158;BME280;50449;51.528;5.076;2023-02-19T05:48:52;101990.81;;;11.93;70.55
64158;BME280;50449;51.528;5.076;2023-02-19T05:51:20;101983.75;;;11.92;70.70
64158;BME280;50449;51.528;5.076;2023-02-19T05:53:46;101982.88;;;11.91;70.54
64158;BME280;50449;51.528;5.076;2023-02-19T05:58:57;101996.06;;;11.88;70.52
64158;BME280;50449;51.528;5.076;2023-02-19T06:01:25;101994.41;;;11.87;70.50
64158;BME280;50449;51.528;5.076;2023-02-19T06:03:51;101995.22;;;11.87;70.58
64158;BME280;50449;51.528;5.076;2023-02-19T06:06:17;101986.28;;;11.87;70.37
64158;BME280;50449;51.528;5.076;2023-02-19T06:08:43;101985.44;;;11.86;70.36
64158;BME280;50449;51.528;5.076;2023-02-19T06:11:09;101987.28;;;11.86;70.64
64158;BME280;50449;51.528;5.076;2023-02-19T06:13:35;101990.00;;;11.86;70.60
64158;BME280;50449;51.528;5.076;2023-02-19T06:16:05;101987.53;;;11.84;70.37
64158;BME280;50449;51.528;5.076;2023-02-19T06:18:30;102000.22;;;11.84;70.47
64158;BME280;50449;51.528;5.076;2023-02-19T06:21:04;102010.22;;;11.83;70.28
64158;BME280;50449;51.528;5.076;2023-02-19T06:23:30;102010.22;;;11.83;70.22
64158;BME280;50449;51.528;5.076;2023-02-19T06:26:13;102012.31;;;11.81;70.20
64158;BME280;50449;51.528;5.076;2023-02-19T06:28:39;102016.91;;;11.81;70.45
64158;BME280;50449;51.528;5.076;2023-02-19T06:31:06;102019.84;;;11.79;70.28
64158;BME280;50449;51.528;5.076;2023-02-19T06:33:33;102034.19;;;11.80;70.37
64158;BME280;50449;51.528;5.076;2023-02-19T06:36:00;102024.41;;;11.79;70.46
64158;BME280;50449;51.528;5.076;2023-02-19T06:38:26;102032.75;;;11.77;70.46
64158;BME280;50449;51.528;5.076;2023-02-19T06:40:52;102039.22;;;11.76;70.29
64158;BME280;50449;51.528;5.076;2023-02-19T06:43:17;102046.50;;;11.76;70.52
64158;BME280;50449;51.528;5.076;2023-02-19T06:45:43;102050.03;;;11.76;70.36
64158;BME280;50449;51.528;5.076;2023-02-19T06:48:08;102051.09;;;11.75;70.49
64158;BME280;50449;51.528;5.076;2023-02-19T06:50:33;102046.72;;;11.74;70.28
64158;BME280;50449;51.528;5.076;2023-02-19T06:53:00;102062.94;;;11.74;70.27
64158;BME280;50449;51.528;5.076;2023-02-19T06:55:25;102049.66;;;11.73;70.32
64158;BME280;50449;51.528;5.076;2023-02-19T06:57:51;102054.44;;;11.70;70.33
64158;BME280;50449;51.528;5.076;2023-02-19T07:00:16;102058.81;;;11.72;70.40
64158;BME280;50449;51.528;5.076;2023-02-19T07:02:42;102050.91;;;11.70;70.51
64158;BME280;50449;51.528;5.076;2023-02-19T07:05:07;102062.78;;;11.69;70.62
64158;BME280;50449;51.528;5.076;2023-02-19T07:07:33;102064.47;;;11.70;70.59
64158;BME280;50449;51.528;5.076;2023-02-19T07:09:58;102071.75;;;11.69;70.48
64158;BME280;50449;51.528;5.076;2023-02-19T07:12:23;102063.84;;;11.68;70.43
64158;BME280;50449;51.528;5.076;2023-02-19T07:14:49;102063.84;;;11.68;70.65
64158;BME280;50449;51.528;5.076;2023-02-19T07:17:14;102069.25;;;11.68;70.36
64158;BME280;50449;51.528;5.076;2023-02-19T07:19:40;102068.44;;;11.67;70.74
64158;BME280;50449;51.528;5.076;2023-02-19T07:22:05;102085.69;;;11.66;70.60
64158;BME280;50449;51.528;5.076;2023-02-19T07:24:30;102081.34;;;11.65;70.47
64158;BME280;50449;51.528;5.076;2023-02-19T07:26:56;102101.13;;;11.66;70.53
64158;BME280;50449;51.528;5.076;2023-02-19T07:29:21;102095.94;;;11.64;70.34
64158;BME280;50449;51.528;5.076;2023-02-19T07:31:46;102105.09;;;11.63;70.50
64158;BME280;50449;51.528;5.076;2023-02-19T07:34:16;102104.25;;;11.63;70.54
64158;BME280;50449;51.528;5.076;2023-02-19T07:36:41;102103.44;;;11.62;70.58
64158;BME280;50449;51.528;5.076;2023-02-19T07:39:06;102117.78;;;11.63;70.42
64158;BME280;50449;51.528;5.076;2023-02-19T07:41:32;102116.16;;;11.62;70.65
64158;BME280;50449;51.528;5.076;2023-02-19T07:43:57;102135.09;;;11.62;70.37
64158;BME280;50449;51.528;5.076;2023-02-19T07:46:23;102128.81;;;11.61;70.71
64158;BME280;50449;51.528;5.076;2023-02-19T07:48:49;102136.13;;;11.61;70.60
64158;BME280;50449;51.528;5.076;2023-02-19T07:51:17;102146.13;;;11.60;70.60
64158;BME280;50449;51.528;5.076;2023-02-19T07:53:44;102156.13;;;11.60;70.23
64158;BME280;50449;51.528;5.076;2023-02-19T07:56:11;102151.72;;;11.59;70.59
64158;BME280;50449;51.528;5.076;2023-02-19T07:58:37;102165.25;;;11.59;70.59
64158;BME280;50449;51.528;5.076;2023-02-19T08:01:11;102169.03;;;11.58;70.52
64158;BME280;50449;51.528;5.076;2023-02-19T08:03:37;102170.91;;;11.57;70.47
64158;BME280;50449;51.528;5.076;2023-02-19T08:06:03;102174.66;;;11.56;70.58
64158;BME280;50449;51.528;5.076;2023-02-19T08:08:29;102177.34;;;11.56;70.48
64158;BME280;50449;51.528;5.076;2023-02-19T08:10:58;102185.47;;;11.56;70.77
64158;BME280;50449;51.528;5.076;2023-02-19T08:13:42;102178.41;;;11.55;70.36
64158;BME280;50449;51.528;5.076;2023-02-19T08:16:11;102174.88;;;11.55;70.36
64158;BME280;50449;51.528;5.076;2023-02-19T08:18:36;102182.16;;;11.54;70.79
64158;BME280;50449;51.528;5.076;2023-02-19T08:21:02;102195.69;;;11.54;70.60
64158;BME280;50449;51.528;5.076;2023-02-19T08:23:27;102201.94;;;11.55;70.76
64158;BME280;50449;51.528;5.076;2023-02-19T08:25:56;102200.06;;;11.55;70.44
64158;BME280;50449;51.528;5.076;2023-02-19T08:28:22;102201.13;;;11.54;70.78
64158;BME280;50449;51.528;5.076;2023-02-19T08:30:48;102208.38;;;11.54;70.60
64158;BME280;50449;51.528;5.076;2023-02-19T08:33:16;102219.19;;;11.54;70.53
64158;BME280;50449;51.528;5.076;2023-02-19T08:35:42;102210.25;;;11.53;70.58
64158;BME280;50449;51.528;5.076;2023-02-19T08:38:10;102212.97;;;11.53;70.68
64158;BME280;50449;51.528;5.076;2023-02-19T08:40:37;102201.31;;;11.53;70.53
64158;BME280;50449;51.528;5.076;2023-02-19T08:43:04;102206.72;;;11.53;70.50
64158;BME280;50449;51.528;5.076;2023-02-19T08:45:30;102210.25;;;11.53;70.64
64158;BME280;50449;51.528;5.076;2023-02-19T08:47:56;102201.31;;;11.53;70.71
64158;BME280;50449;51.528;5.076;2023-02-19T08:50:21;102207.78;;;11.52;70.49
64158;BME280;50449;51.528;5.076;2023-02-19T08:52:47;102215.91;;;11.52;70.38
64158;BME280;50449;51.528;5.076;2023-02-19T08:55:12;102212.34;;;11.51;70.36
64158;BME280;50449;51.528;5.076;2023-02-19T08:57:38;102219.63;;;11.51;70.78
64158;BME280;50449;51.528;5.076;2023-02-19T09:00:05;102223.41;;;11.50;70.47
64158;BME280;50449;51.528;5.076;2023-02-19T09:02:31;102227.97;;;11.49;70.56
64158;BME280;50449;51.528;5.076;2023-02-19T09:04:56;102234.22;;;11.50;70.64
64158;BME280;50449;51.528;5.076;2023-02-19T09:07:22;102236.09;;;11.49;70.51
64158;BME280;50449;51.528;5.076;2023-02-19T09:09:47;102236.09;;;11.49;70.64
64158;BME280;50449;51.528;5.076;2023-02-19T09:12:13;102230.69;;;11.49;70.78
64158;BME280;50449;51.528;5.076;2023-02-19T09:14:38;102230.69;;;11.49;70.62
64158;BME280;50449;51.528;5.076;2023-02-19T09:17:05;102233.41;;;11.49;70.66
64158;BME280;50449;51.528;5.076;2023-02-19T09:19:31;102234.22;;;11.50;70.37
64158;BME280;50449;51.528;5.076;2023-02-19T09:21:57;102239.63;;;11.50;70.37
64158;BME280;50449;51.528;5.076;2023-02-19T09:24:23;102240.44;;;11.50;70.53
64158;BME280;50449;51.528;5.076;2023-02-19T09:26:52;102225.03;;;11.51;70.76
64158;BME280;50449;51.528;5.076;2023-02-19T09:29:28;102224.22;;;11.50;70.52
64158;BME280;50449;51.528;5.076;2023-02-19T09:31:58;102225.03;;;11.51;70.63
64158;BME280;50449;51.528;5.076;2023-02-19T09:34:26;102233.16;;;11.51;70.31
64158;BME280;50449;51.528;5.076;2023-02-19T09:36:52;102236.69;;;11.51;70.77
64158;BME280;50449;51.528;5.076;2023-02-19T09:39:18;102239.41;;;11.51;70.36
64158;BME280;50449;51.528;5.076;2023-02-19T09:41:47;102252.94;;;11.51;70.53
64158;BME280;50449;51.528;5.076;2023-02-19T09:44:22;102242.97;;;11.52;70.53
64158;BME280;50449;51.528;5.076;2023-02-19T09:46:51;102254.63;;;11.52;70.43
64158;BME280;50449;51.528;5.076;2023-02-19T09:52:12;102276.25;;;11.52;70.61
64158;BME280;50449;51.528;5.076;2023-02-19T09:54:40;102278.13;;;11.52;70.62
64158;BME280;50449;51.528;5.076;2023-02-19T09:57:27;102274.38;;;11.53;70.70
64158;BME280;50449;51.528;5.076;2023-02-19T10:00:28;102277.28;;;11.51;70.52
64158;BME280;50449;51.528;5.076;2023-02-19T10:03:10;102281.66;;;11.52;70.34
64158;BME280;50449;51.528;5.076;2023-02-19T10:05:39;102284.56;;;11.51;70.36
64158;BME280;50449;51.528;5.076;2023-02-19T10:08:08;102293.53;;;11.51;70.36
64158;BME280;50449;51.528;5.076;2023-02-19T10:10:37;102302.50;;;11.52;70.34
64158;BME280;50449;51.528;5.076;2023-02-19T10:13:23;102297.91;;;11.52;70.52
64158;BME280;50449;51.528;5.076;2023-02-19T10:15:55;102302.25;;;11.53;70.55
64158;BME280;50449;51.528;5.076;2023-02-19T10:18:23;102312.25;;;11.53;70.46
64158;BME280;50449;51.528;5.076;2023-02-19T10:20:51;102322.03;;;11.54;70.45
64158;BME280;50449;51.528;5.076;2023-02-19T10:23:17;102326.44;;;11.55;70.41
64158;BME280;50449;51.528;5.076;2023-02-19T10:25:49;102331.00;;;11.54;70.62
64158;BME280;50449;51.528;5.076;2023-02-19T10:28:20;102342.66;;;11.55;70.49
64158;BME280;50449;51.528;5.076;2023-02-19T10:30:47;102348.06;;;11.55;70.44
64158;BME280;50449;51.528;5.076;2023-02-19T10:33:15;102349.94;;;11.54;70.28
64158;BME280;50449;51.528;5.076;2023-02-19T10:36:02;102355.38;;;11.54;70.47
64158;BME280;50449;51.528;5.076;2023-02-19T10:38:34;102355.56;;;11.53;70.53
64158;BME280;50449;51.528;5.076;2023-02-19T10:41:05;102358.91;;;11.55;70.45
64158;BME280;50449;51.528;5.076;2023-02-19T10:43:36;102367.66;;;11.57;70.42
64158;BME280;50449;51.528;5.076;2023-02-19T10:46:17;102365.13;;;11.55;70.34
64158;BME280;50449;51.528;5.076;2023-02-19T10:48:52;102364.94;;;11.57;70.34
64158;BME280;50449;51.528;5.076;2023-02-19T10:51:19;102368.47;;;11.57;70.67
64158;BME280;50449;51.528;5.076;2023-02-19T10:53:49;102375.53;;;11.58;70.24
64158;BME280;50449;51.528;5.076;2023-02-19T10:56:20;102373.66;;;11.59;70.58
64158;BME280;50449;51.528;5.076;2023-02-19T10:58:47;102371.81;;;11.59;70.44
64158;BME280;50449;51.528;5.076;2023-02-19T11:01:23;102369.94;;;11.60;70.62
64158;BME280;50449;51.528;5.076;2023-02-19T11:04:16;102359.94;;;11.60;70.76
64158;BME280;50449;51.528;5.076;2023-02-19T11:06:43;102368.88;;;11.61;70.60
64158;BME280;50449;51.528;5.076;2023-02-19T11:12:08;102379.50;;;11.62;70.40
64158;BME280;50449;51.528;5.076;2023-02-19T11:14:34;102376.78;;;11.62;70.59
64158;BME280;50449;51.528;5.076;2023-02-19T11:17:01;102373.84;;;11.64;70.57
64158;BME280;50449;51.528;5.076;2023-02-19T11:19:41;102383.88;;;11.63;70.77
64158;BME280;50449;51.528;5.076;2023-02-19T11:24:52;102368.25;;;11.65;70.77
64158;BME280;50449;51.528;5.076;2023-02-19T11:27:20;102366.38;;;11.66;70.69
64158;BME280;50449;51.528;5.076;2023-02-19T11:29:47;102365.34;;;11.67;70.60
64158;BME280;50449;51.528;5.076;2023-02-19T11:34:44;102375.13;;;11.68;70.58
64158;BME280;50449;51.528;5.076;2023-02-19T11:37:18;102368.66;;;11.69;70.26
64158;BME280;50449;51.528;5.076;2023-02-19T11:39:49;102368.44;;;11.70;70.40
64158;BME280;50449;51.528;5.076;2023-02-19T11:50:24;102358.25;;;11.73;70.26
64158;BME280;50449;51.528;5.076;2023-02-19T11:56:02;102361.59;;;11.75;70.35
64158;BME280;50449;51.528;5.076;2023-02-19T12:01:46;102371.34;;;11.76;70.05
64158;BME280;50449;51.528;5.076;2023-02-19T12:04:33;102358.88;;;11.75;70.05
64158;BME280;50449;51.528;5.076;2023-02-19T12:10:31;102336.78;;;11.78;70.45
64158;BME280;50449;51.528;5.076;2023-02-19T12:21:13;102332.41;;;11.83;70.09
64158;BME280;50449;51.528;5.076;2023-02-19T12:40:32;102359.94;;;11.87;70.27
64158;BME280;50449;51.528;5.076;2023-02-19T12:43:11;102363.47;;;11.87;70.29
64158;BME280;50449;51.528;5.076;2023-02-19T12:46:07;102362.41;;;11.88;70.22
64158;BME280;50449;51.528;5.076;2023-02-19T12:48:44;102374.91;;;11.89;70.09
64158;BME280;50449;51.528;5.076;2023-02-19T12:54:00;102375.75;;;11.90;69.86
64158;BME280;50449;51.528;5.076;2023-02-19T12:56:38;102368.25;;;11.92;69.70
64158;BME280;50449;51.528;5.076;2023-02-19T12:59:12;102375.31;;;11.93;69.75
64158;BME280;50449;51.528;5.076;2023-02-19T13:01:47;102379.91;;;11.93;69.99
64158;BME280;50449;51.528;5.076;2023-02-19T13:04:36;102374.25;;;11.94;70.13
64158;BME280;50449;51.528;5.076;2023-02-19T13:07:09;102380.53;;;11.95;70.14
64158;BME280;50449;51.528;5.076;2023-02-19T13:12:24;102402.78;;;11.97;69.96
64158;BME280;50449;51.528;5.076;2023-02-19T13:17:52;102403.41;;;11.99;70.03
64158;BME280;50449;51.528;5.076;2023-02-19T13:20:29;102423.19;;;11.99;69.69
64158;BME280;50449;51.528;5.076;2023-02-19T13:31:38;102443.22;;;11.98;69.79
64158;BME280;50449;51.528;5.076;2023-02-19T13:36:55;102436.97;;;11.98;69.82
64158;BME280;50449;51.528;5.076;2023-02-19T13:39:23;102429.69;;;11.98;70.13
64158;BME280;50449;51.528;5.076;2023-02-19T13:41:55;102435.72;;;12.00;69.84
64158;BME280;50449;51.528;5.076;2023-02-19T13:44:25;102450.09;;;12.01;69.96
64158;BME280;50449;51.528;5.076;2023-02-19T13:46:51;102441.13;;;12.00;69.83
64158;BME280;50449;51.528;5.076;2023-02-19T13:49:36;102454.44;;;12.02;70.04
64158;BME280;50449;51.528;5.076;2023-02-19T13:52:33;102456.34;;;12.01;70.09
64158;BME280;50449;51.528;5.076;2023-02-19T14:01:01;102462.81;;;12.00;69.80
64158;BME280;50449;51.528;5.076;2023-02-19T14:06:03;102460.91;;;12.01;69.98
64158;BME280;50449;51.528;5.076;2023-02-19T14:08:54;102464.47;;;12.01;70.16
64158;BME280;50449;51.528;5.076;2023-02-19T14:14:26;102464.69;;;12.00;70.03
64158;BME280;50449;51.528;5.076;2023-02-19T14:16:57;102479.88;;;12.01;69.91
64158;BME280;50449;51.528;5.076;2023-02-19T14:25:35;102466.53;;;11.99;70.11
64158;BME280;50449;51.528;5.076;2023-02-19T14:31:01;102473.19;;;11.97;69.76
64158;BME280;50449;51.528;5.076;2023-02-19T14:33:30;102471.34;;;11.97;69.51
64158;BME280;50449;51.528;5.076;2023-02-19T14:39:09;102470.31;;;11.98;69.59
64158;BME280;50449;51.528;5.076;2023-02-19T14:41:38;102480.31;;;11.98;69.52
64158;BME280;50449;51.528;5.076;2023-02-19T14:44:10;102469.47;;;11.98;69.63
64158;BME280;50449;51.528;5.076;2023-02-19T14:46:43;102473.19;;;11.97;69.69
64158;BME280;50449;51.528;5.076;2023-02-19T14:49:17;102465.09;;;11.97;69.59
64158;BME280;50449;51.528;5.076;2023-02-19T14:51:47;102474.06;;;11.97;69.65
64158;BME280;50449;51.528;5.076;2023-02-19T14:54:18;102476.78;;;11.97;69.64
64158;BME280;50449;51.528;5.076;2023-02-19T14:56:50;102469.66;;;11.96;69.56
64158;BME280;50449;51.528;5.076;2023-02-19T14:59:22;102467.78;;;11.97;69.52
64158;BME280;50449;51.528;5.076;2023-02-19T15:02:00;102465.09;;;11.97;69.58
64158;BME280;50449;51.528;5.076;2023-02-19T15:04:33;102470.72;;;11.95;69.72
64158;BME280;50449;51.528;5.076;2023-02-19T15:07:01;102466.13;;;11.96;69.63